sensor_id;sensor_type;location;lat;lon;timestamp;temperature;humidity
60473;DHT22;46318;52.716;6.444;2023-02-11T00:00:54;6.50;99.90
60473;DHT22;46318;52.716;6.444;2023-02-11T00:03:20;6.50;99.90
60473;DHT22;46318;52.716;6.444;2023-02-11T00:05:59;6.50;99.90
60473;DHT22;46318;52.716;6.444;2023-02-11T00:08:26;6.50;99.90
60473;DHT22;46318;52.716;6.444;2023-02-11T00:10:53;6.50;99.90
60473;DHT22;46318;52.716;6.444;2023-02-11T00:13:20;6.50;99.90
60473;DHT22;46318;52.716;6.444;2023-02-11T00:15:47;6.50;99.90
60473;DHT22;46318;52.716;6.444;2023-02-11T00:18:12;6.50;99.90
60473;DHT22;46318;52.716;6.444;2023-02-11T00:20:39;6.50;99.90
60473;DHT22;46318;52.716;6.444;2023-02-11T00:23:05;6.50;99.90
60473;DHT22;46318;52.716;6.444;2023-02-11T00:25:31;6.50;99.90
60473;DHT22;46318;52.716;6.444;2023-02-11T00:27:57;6.60;99.90
60473;DHT22;46318;52.716;6.444;2023-02-11T00:30:23;6.50;99.90
60473;DHT22;46318;52.716;6.444;2023-02-11T00:32:49;6.50;99.90
60473;DHT22;46318;52.716;6.444;2023-02-11T00:35:15;6.60;99.90
60473;DHT22;46318;52.716;6.444;2023-02-11T00:37:41;6.50;99.90
60473;DHT22;46318;52.716;6.444;2023-02-11T00:40:08;6.60;99.90
60473;DHT22;46318;52.716;6.444;2023-02-11T00:42:34;6.60;99.90
60473;DHT22;46318;52.716;6.444;2023-02-11T00:45:00;6.60;99.90
60473;DHT22;46318;52.716;6.444;2023-02-11T00:47:26;6.60;99.90
60473;DHT22;46318;52.716;6.444;2023-02-11T00:49:52;6.60;99.90
60473;DHT22;46318;52.716;6.444;2023-02-11T00:52:18;6.60;99.90
60473;DHT22;46318;52.716;6.444;2023-02-11T00:54:44;6.60;99.90
60473;DHT22;46318;52.716;6.444;2023-02-11T00:57:10;6.60;99.90
60473;DHT22;46318;52.716;6.444;2023-02-11T00:59:36;6.60;99.90
60473;DHT22;46318;52.716;6.444;2023-02-11T01:02:02;6.60;99.90
60473;DHT22;46318;52.716;6.444;2023-02-11T01:04:27;6.50;99.90
60473;DHT22;46318;52.716;6.444;2023-02-11T01:06:53;6.50;99.90
60473;DHT22;46318;52.716;6.444;2023-02-11T01:09:19;6.60;99.90
60473;DHT22;46318;52.716;6.444;2023-02-11T01:11:46;6.50;99.90
60473;DHT22;46318;52.716;6.444;2023-02-11T01:14:12;6.50;99.90
60473;DHT22;46318;52.716;6.444;2023-02-11T01:16:38;6.50;99.90
60473;DHT22;46318;52.716;6.444;2023-02-11T01:19:05;6.50;99.90
60473;DHT22;46318;52.716;6.444;2023-02-11T01:21:30;6.50;99.90
60473;DHT22;46318;52.716;6.444;2023-02-11T01:23:56;6.50;99.90
60473;DHT22;46318;52.716;6.444;2023-02-11T01:26:23;6.50;99.90
60473;DHT22;46318;52.716;6.444;2023-02-11T01:28:49;6.50;99.90
60473;DHT22;46318;52.716;6.444;2023-02-11T01:31:15;6.50;99.90
60473;DHT22;46318;52.716;6.444;2023-02-11T01:33:41;6.50;99.90
60473;DHT22;46318;52.716;6.444;2023-02-11T01:36:07;6.50;99.90
60473;DHT22;46318;52.716;6.444;2023-02-11T01:38:34;6.50;99.90
60473;DHT22;46318;52.716;6.444;2023-02-11T01:41:06;6.50;99.90
60473;DHT22;46318;52.716;6.444;2023-02-11T01:43:37;6.50;99.90
60473;DHT22;46318;52.716;6.444;2023-02-11T01:46:36;6.50;99.90
60473;DHT22;46318;52.716;6.444;2023-02-11T01:49:19;6.50;99.90
60473;DHT22;46318;52.716;6.444;2023-02-11T01:51:52;6.50;99.90
60473;DHT22;46318;52.716;6.444;2023-02-11T01:54:23;6.50;99.90
60473;DHT22;46318;52.716;6.444;2023-02-11T01:57:12;6.50;99.90
60473;DHT22;46318;52.716;6.444;2023-02-11T02:00:15;6.50;99.90
60473;DHT22;46318;52.716;6.444;2023-02-11T02:10:46;6.50;99.90
60473;DHT22;46318;52.716;6.444;2023-02-11T02:13:14;6.50;99.90
60473;DHT22;46318;52.716;6.444;2023-02-11T02:15:54;6.50;99.90
60473;DHT22;46318;52.716;6.444;2023-02-11T02:24:57;6.50;99.90
60473;DHT22;46318;52.716;6.444;2023-02-11T02:30:37;6.50;99.90
60473;DHT22;46318;52.716;6.444;2023-02-11T02:36:04;6.50;99.90
60473;DHT22;46318;52.716;6.444;2023-02-11T02:38:49;6.50;99.90
60473;DHT22;46318;52.716;6.444;2023-02-11T02:41:22;6.50;99.90
60473;DHT22;46318;52.716;6.444;2023-02-11T02:43:51;6.50;99.90
60473;DHT22;46318;52.716;6.444;2023-02-11T02:46:30;6.50;99.90
60473;DHT22;46318;52.716;6.444;2023-02-11T02:48:57;6.50;99.90
60473;DHT22;46318;52.716;6.444;2023-02-11T03:03:22;6.60;99.90
60473;DHT22;46318;52.716;6.444;2023-02-11T03:06:06;6.60;99.90
60473;DHT22;46318;52.716;6.444;2023-02-11T03:08:41;6.60;99.90
60473;DHT22;46318;52.716;6.444;2023-02-11T03:11:11;6.60;99.90
60473;DHT22;46318;52.716;6.444;2023-02-11T03:13:41;6.60;99.90
60473;DHT22;46318;52.716;6.444;2023-02-11T03:16:12;6.60;99.90
60473;DHT22;46318;52.716;6.444;2023-02-11T03:18:43;6.60;99.90
60473;DHT22;46318;52.716;6.444;2023-02-11T03:21:15;6.60;99.90
60473;DHT22;46318;52.716;6.444;2023-02-11T03:23:55;6.60;99.90
60473;DHT22;46318;52.716;6.444;2023-02-11T03:26:27;6.70;99.90
60473;DHT22;46318;52.716;6.444;2023-02-11T03:32:31;6.70;99.90
60473;DHT22;46318;52.716;6.444;2023-02-11T03:35:12;6.70;99.90
60473;DHT22;46318;52.716;6.444;2023-02-11T03:37:51;6.70;99.90
60473;DHT22;46318;52.716;6.444;2023-02-11T03:40:42;6.70;99.90
60473;DHT22;46318;52.716;6.444;2023-02-11T03:43:40;6.70;99.90
60473;DHT22;46318;52.716;6.444;2023-02-11T03:46:09;6.70;99.90
60473;DHT22;46318;52.716;6.444;2023-02-11T03:48:47;6.70;99.90
60473;DHT22;46318;52.716;6.444;2023-02-11T03:51:16;6.70;99.90
60473;DHT22;46318;52.716;6.444;2023-02-11T03:53:44;6.80;99.90
60473;DHT22;46318;52.716;6.444;2023-02-11T03:56:15;6.70;99.90
60473;DHT22;46318;52.716;6.444;2023-02-11T03:58:44;6.70;99.90
60473;DHT22;46318;52.716;6.444;2023-02-11T04:01:10;6.80;99.90
60473;DHT22;46318;52.716;6.444;2023-02-11T04:03:37;6.70;99.90
60473;DHT22;46318;52.716;6.444;2023-02-11T04:06:03;6.80;99.90
60473;DHT22;46318;52.716;6.444;2023-02-11T04:08:29;6.80;99.90
60473;DHT22;46318;52.716;6.444;2023-02-11T04:10:56;6.80;99.90
60473;DHT22;46318;52.716;6.444;2023-02-11T04:13:22;6.80;99.90
60473;DHT22;46318;52.716;6.444;2023-02-11T04:15:47;6.80;99.90
60473;DHT22;46318;52.716;6.444;2023-02-11T04:18:13;6.80;99.90
60473;DHT22;46318;52.716;6.444;2023-02-11T04:20:39;6.80;99.90
60473;DHT22;46318;52.716;6.444;2023-02-11T04:23:05;6.80;99.90
60473;DHT22;46318;52.716;6.444;2023-02-11T04:25:31;6.80;99.90
60473;DHT22;46318;52.716;6.444;2023-02-11T04:27:57;6.80;99.90
60473;DHT22;46318;52.716;6.444;2023-02-11T04:30:24;6.80;99.90
60473;DHT22;46318;52.716;6.444;2023-02-11T04:32:50;6.80;99.90
60473;DHT22;46318;52.716;6.444;2023-02-11T04:35:15;6.80;99.90
60473;DHT22;46318;52.716;6.444;2023-02-11T04:37:41;6.80;99.90
60473;DHT22;46318;52.716;6.444;2023-02-11T04:40:08;6.80;99.90
60473;DHT22;46318;52.716;6.444;2023-02-11T04:42:34;6.80;99.90
60473;DHT22;46318;52.716;6.444;2023-02-11T04:45:00;6.80;99.90
60473;DHT22;46318;52.716;6.444;2023-02-11T04:47:26;6.80;99.90
60473;DHT22;46318;52.716;6.444;2023-02-11T04:49:52;6.80;99.90
60473;DHT22;46318;52.716;6.444;2023-02-11T04:52:21;6.80;99.90
60473;DHT22;46318;52.716;6.444;2023-02-11T04:54:46;6.80;99.90
60473;DHT22;46318;52.716;6.444;2023-02-11T04:57:12;6.80;99.90
60473;DHT22;46318;52.716;6.444;2023-02-11T04:59:38;6.80;99.90
60473;DHT22;46318;52.716;6.444;2023-02-11T05:02:05;6.80;99.90
60473;DHT22;46318;52.716;6.444;2023-02-11T05:04:31;6.80;99.90
60473;DHT22;46318;52.716;6.444;2023-02-11T05:06:57;6.80;99.90
60473;DHT22;46318;52.716;6.444;2023-02-11T05:09:22;6.80;99.90
60473;DHT22;46318;52.716;6.444;2023-02-11T05:11:48;6.70;99.90
60473;DHT22;46318;52.716;6.444;2023-02-11T05:14:14;6.80;99.90
60473;DHT22;46318;52.716;6.444;2023-02-11T05:16:40;6.80;99.90
60473;DHT22;46318;52.716;6.444;2023-02-11T05:19:06;6.80;99.90
60473;DHT22;46318;52.716;6.444;2023-02-11T05:21:31;6.80;99.90
60473;DHT22;46318;52.716;6.444;2023-02-11T05:23:58;6.80;99.90
60473;DHT22;46318;52.716;6.444;2023-02-11T05:26:24;6.80;99.90
60473;DHT22;46318;52.716;6.444;2023-02-11T05:28:50;6.80;99.90
60473;DHT22;46318;52.716;6.444;2023-02-11T05:31:16;6.80;99.90
60473;DHT22;46318;52.716;6.444;2023-02-11T05:33:41;6.80;99.90
60473;DHT22;46318;52.716;6.444;2023-02-11T05:36:10;6.80;99.90
60473;DHT22;46318;52.716;6.444;2023-02-11T05:38:38;6.80;99.90
60473;DHT22;46318;52.716;6.444;2023-02-11T05:41:05;6.80;99.90
60473;DHT22;46318;52.716;6.444;2023-02-11T05:43:31;6.80;99.90
60473;DHT22;46318;52.716;6.444;2023-02-11T05:45:59;6.80;99.90
60473;DHT22;46318;52.716;6.444;2023-02-11T05:48:25;6.90;99.90
60473;DHT22;46318;52.716;6.444;2023-02-11T05:50:51;6.90;99.90
60473;DHT22;46318;52.716;6.444;2023-02-11T05:53:17;6.80;99.90
60473;DHT22;46318;52.716;6.444;2023-02-11T05:55:43;6.90;99.90
60473;DHT22;46318;52.716;6.444;2023-02-11T05:58:08;6.90;99.90
60473;DHT22;46318;52.716;6.444;2023-02-11T06:00:35;6.90;99.90
60473;DHT22;46318;52.716;6.444;2023-02-11T06:03:03;6.90;99.90
60473;DHT22;46318;52.716;6.444;2023-02-11T06:05:30;6.90;99.90
60473;DHT22;46318;52.716;6.444;2023-02-11T06:07:56;6.90;99.90
60473;DHT22;46318;52.716;6.444;2023-02-11T06:10:22;6.90;99.90
60473;DHT22;46318;52.716;6.444;2023-02-11T06:12:48;6.90;99.90
60473;DHT22;46318;52.716;6.444;2023-02-11T06:15:14;6.90;99.90
60473;DHT22;46318;52.716;6.444;2023-02-11T06:17:43;6.90;99.90
60473;DHT22;46318;52.716;6.444;2023-02-11T06:20:09;6.90;99.90
60473;DHT22;46318;52.716;6.444;2023-02-11T06:22:36;6.90;99.90
60473;DHT22;46318;52.716;6.444;2023-02-11T06:25:04;6.90;99.90
60473;DHT22;46318;52.716;6.444;2023-02-11T06:27:30;6.90;99.90
60473;DHT22;46318;52.716;6.444;2023-02-11T06:29:56;7.00;99.90
60473;DHT22;46318;52.716;6.444;2023-02-11T06:32:22;6.90;99.90
60473;DHT22;46318;52.716;6.444;2023-02-11T06:34:48;7.00;99.90
60473;DHT22;46318;52.716;6.444;2023-02-11T06:37:14;6.90;99.90
60473;DHT22;46318;52.716;6.444;2023-02-11T06:39:40;7.00;99.90
60473;DHT22;46318;52.716;6.444;2023-02-11T06:42:06;6.90;99.90
60473;DHT22;46318;52.716;6.444;2023-02-11T06:44:32;7.00;99.90
60473;DHT22;46318;52.716;6.444;2023-02-11T06:46:57;6.90;99.90
60473;DHT22;46318;52.716;6.444;2023-02-11T06:49:23;7.00;99.90
60473;DHT22;46318;52.716;6.444;2023-02-11T06:51:49;7.00;99.90
60473;DHT22;46318;52.716;6.444;2023-02-11T06:54:15;7.00;99.90
60473;DHT22;46318;52.716;6.444;2023-02-11T06:56:41;7.00;99.90
60473;DHT22;46318;52.716;6.444;2023-02-11T06:59:11;7.00;99.90
60473;DHT22;46318;52.716;6.444;2023-02-11T07:01:42;7.00;99.90
60473;DHT22;46318;52.716;6.444;2023-02-11T07:04:08;7.00;99.90
60473;DHT22;46318;52.716;6.444;2023-02-11T07:06:34;7.00;99.90
60473;DHT22;46318;52.716;6.444;2023-02-11T07:09:02;7.00;99.90
60473;DHT22;46318;52.716;6.444;2023-02-11T07:11:29;7.00;99.90
60473;DHT22;46318;52.716;6.444;2023-02-11T07:14:05;7.00;99.90
60473;DHT22;46318;52.716;6.444;2023-02-11T07:16:35;7.00;99.90
60473;DHT22;46318;52.716;6.444;2023-02-11T07:19:01;7.00;99.90
60473;DHT22;46318;52.716;6.444;2023-02-11T07:21:27;7.00;99.90
60473;DHT22;46318;52.716;6.444;2023-02-11T07:23:53;7.00;99.90
60473;DHT22;46318;52.716;6.444;2023-02-11T07:26:21;7.00;99.90
60473;DHT22;46318;52.716;6.444;2023-02-11T07:28:49;7.00;99.90
60473;DHT22;46318;52.716;6.444;2023-02-11T07:31:19;7.00;99.90
60473;DHT22;46318;52.716;6.444;2023-02-11T07:33:46;7.00;99.90
60473;DHT22;46318;52.716;6.444;2023-02-11T07:36:14;7.00;99.90
60473;DHT22;46318;52.716;6.444;2023-02-11T07:38:41;7.00;99.90
60473;DHT22;46318;52.716;6.444;2023-02-11T07:41:09;7.00;99.90
60473;DHT22;46318;52.716;6.444;2023-02-11T07:43:38;7.10;99.90
60473;DHT22;46318;52.716;6.444;2023-02-11T07:46:06;7.00;99.90
60473;DHT22;46318;52.716;6.444;2023-02-11T07:48:34;7.00;99.90
60473;DHT22;46318;52.716;6.444;2023-02-11T07:51:12;7.00;99.90
60473;DHT22;46318;52.716;6.444;2023-02-11T07:53:40;7.10;99.90
60473;DHT22;46318;52.716;6.444;2023-02-11T07:56:08;7.10;99.90
60473;DHT22;46318;52.716;6.444;2023-02-11T07:58:34;7.10;99.90
60473;DHT22;46318;52.716;6.444;2023-02-11T08:01:02;7.10;99.90
60473;DHT22;46318;52.716;6.444;2023-02-11T08:03:33;7.10;99.90
60473;DHT22;46318;52.716;6.444;2023-02-11T08:06:08;7.10;99.90
60473;DHT22;46318;52.716;6.444;2023-02-11T08:08:36;7.10;99.90
60473;DHT22;46318;52.716;6.444;2023-02-11T08:11:30;7.10;99.90
60473;DHT22;46318;52.716;6.444;2023-02-11T08:13:56;7.10;99.90
60473;DHT22;46318;52.716;6.444;2023-02-11T08:18:51;7.10;99.90
60473;DHT22;46318;52.716;6.444;2023-02-11T08:21:18;7.20;99.90
60473;DHT22;46318;52.716;6.444;2023-02-11T08:23:48;7.20;99.90
60473;DHT22;46318;52.716;6.444;2023-02-11T08:26:20;7.20;99.90
60473;DHT22;46318;52.716;6.444;2023-02-11T08:28:50;7.20;99.90
60473;DHT22;46318;52.716;6.444;2023-02-11T08:31:22;7.30;99.90
60473;DHT22;46318;52.716;6.444;2023-02-11T08:33:50;7.30;99.90
60473;DHT22;46318;52.716;6.444;2023-02-11T08:36:19;7.30;99.90
60473;DHT22;46318;52.716;6.444;2023-02-11T08:38:46;7.30;99.90
60473;DHT22;46318;52.716;6.444;2023-02-11T08:41:13;7.30;99.90
60473;DHT22;46318;52.716;6.444;2023-02-11T08:43:40;7.40;99.90
60473;DHT22;46318;52.716;6.444;2023-02-11T08:46:07;7.40;99.90
60473;DHT22;46318;52.716;6.444;2023-02-11T08:48:34;7.40;99.90
60473;DHT22;46318;52.716;6.444;2023-02-11T08:51:08;7.40;99.90
60473;DHT22;46318;52.716;6.444;2023-02-11T08:53:36;7.40;99.90
60473;DHT22;46318;52.716;6.444;2023-02-11T08:56:02;7.40;99.90
60473;DHT22;46318;52.716;6.444;2023-02-11T08:58:28;7.40;99.90
60473;DHT22;46318;52.716;6.444;2023-02-11T09:00:54;7.50;99.90
60473;DHT22;46318;52.716;6.444;2023-02-11T09:03:20;7.50;99.90
60473;DHT22;46318;52.716;6.444;2023-02-11T09:05:47;7.50;99.90
60473;DHT22;46318;52.716;6.444;2023-02-11T09:08:20;7.50;99.90
60473;DHT22;46318;52.716;6.444;2023-02-11T09:10:46;7.60;99.90
60473;DHT22;46318;52.716;6.444;2023-02-11T09:13:12;7.60;99.90
60473;DHT22;46318;52.716;6.444;2023-02-11T09:15:38;7.60;99.90
60473;DHT22;46318;52.716;6.444;2023-02-11T09:18:05;7.60;99.90
60473;DHT22;46318;52.716;6.444;2023-02-11T09:20:31;7.60;99.90
60473;DHT22;46318;52.716;6.444;2023-02-11T09:22:58;7.60;99.90
60473;DHT22;46318;52.716;6.444;2023-02-11T09:25:24;7.70;99.90
60473;DHT22;46318;52.716;6.444;2023-02-11T09:27:50;7.70;99.90
60473;DHT22;46318;52.716;6.444;2023-02-11T09:30:18;7.70;99.90
60473;DHT22;46318;52.716;6.444;2023-02-11T09:32:44;7.70;99.90
60473;DHT22;46318;52.716;6.444;2023-02-11T09:35:10;7.80;99.90
60473;DHT22;46318;52.716;6.444;2023-02-11T09:37:36;7.80;99.90
60473;DHT22;46318;52.716;6.444;2023-02-11T09:40:02;7.80;99.90
60473;DHT22;46318;52.716;6.444;2023-02-11T09:42:52;7.90;99.90
60473;DHT22;46318;52.716;6.444;2023-02-11T09:45:27;7.90;99.90
60473;DHT22;46318;52.716;6.444;2023-02-11T09:48:19;7.90;99.90
60473;DHT22;46318;52.716;6.444;2023-02-11T09:50:50;8.00;99.90
60473;DHT22;46318;52.716;6.444;2023-02-11T09:53:24;8.00;99.90
60473;DHT22;46318;52.716;6.444;2023-02-11T09:56:10;8.00;99.90
60473;DHT22;46318;52.716;6.444;2023-02-11T09:58:43;8.10;99.90
60473;DHT22;46318;52.716;6.444;2023-02-11T10:01:34;8.10;99.90
60473;DHT22;46318;52.716;6.444;2023-02-11T10:07:18;8.20;99.90
60473;DHT22;46318;52.716;6.444;2023-02-11T10:15:54;8.20;99.90
60473;DHT22;46318;52.716;6.444;2023-02-11T10:18:49;8.30;99.90
60473;DHT22;46318;52.716;6.444;2023-02-11T10:21:52;8.30;99.90
60473;DHT22;46318;52.716;6.444;2023-02-11T10:24:23;8.40;99.90
60473;DHT22;46318;52.716;6.444;2023-02-11T10:26:51;8.30;99.90
60473;DHT22;46318;52.716;6.444;2023-02-11T10:29:30;8.40;99.90
60473;DHT22;46318;52.716;6.444;2023-02-11T10:32:04;8.40;99.90
60473;DHT22;46318;52.716;6.444;2023-02-11T10:34:40;8.40;99.90
60473;DHT22;46318;52.716;6.444;2023-02-11T10:37:10;8.50;99.90
60473;DHT22;46318;52.716;6.444;2023-02-11T10:39:40;8.50;99.90
60473;DHT22;46318;52.716;6.444;2023-02-11T10:42:09;8.50;99.90
60473;DHT22;46318;52.716;6.444;2023-02-11T10:44:58;8.50;99.90
60473;DHT22;46318;52.716;6.444;2023-02-11T10:47:30;8.50;99.90
60473;DHT22;46318;52.716;6.444;2023-02-11T10:50:23;8.50;99.90
60473;DHT22;46318;52.716;6.444;2023-02-11T10:52:51;8.60;99.90
60473;DHT22;46318;52.716;6.444;2023-02-11T10:55:21;8.60;99.90
60473;DHT22;46318;52.716;6.444;2023-02-11T10:57:51;8.60;99.90
60473;DHT22;46318;52.716;6.444;2023-02-11T11:00:36;8.60;99.90
60473;DHT22;46318;52.716;6.444;2023-02-11T11:03:17;8.60;99.90
60473;DHT22;46318;52.716;6.444;2023-02-11T11:05:49;8.60;99.90
60473;DHT22;46318;52.716;6.444;2023-02-11T11:08:45;8.60;99.90
60473;DHT22;46318;52.716;6.444;2023-02-11T11:13:59;8.70;99.90
60473;DHT22;46318;52.716;6.444;2023-02-11T11:16:34;8.70;99.90
60473;DHT22;46318;52.716;6.444;2023-02-11T11:21:39;8.80;99.90
60473;DHT22;46318;52.716;6.444;2023-02-11T11:24:38;8.80;99.90
60473;DHT22;46318;52.716;6.444;2023-02-11T11:27:17;8.80;99.90
60473;DHT22;46318;52.716;6.444;2023-02-11T11:29:48;8.90;99.90
60473;DHT22;46318;52.716;6.444;2023-02-11T11:32:24;8.90;99.90
60473;DHT22;46318;52.716;6.444;2023-02-11T11:34:54;8.90;99.90
60473;DHT22;46318;52.716;6.444;2023-02-11T11:37:37;8.90;99.90
60473;DHT22;46318;52.716;6.444;2023-02-11T11:40:22;9.00;99.90
60473;DHT22;46318;52.716;6.444;2023-02-11T11:45:57;9.00;99.90
60473;DHT22;46318;52.716;6.444;2023-02-11T11:48:30;9.10;99.90
60473;DHT22;46318;52.716;6.444;2023-02-11T11:51:03;9.10;99.90
60473;DHT22;46318;52.716;6.444;2023-02-11T11:53:40;9.10;99.90
60473;DHT22;46318;52.716;6.444;2023-02-11T11:58:41;9.20;99.90
60473;DHT22;46318;52.716;6.444;2023-02-11T12:04:41;9.30;99.90
60473;DHT22;46318;52.716;6.444;2023-02-11T12:19:31;9.50;99.90
60473;DHT22;46318;52.716;6.444;2023-02-11T12:25:26;9.50;99.90
60473;DHT22;46318;52.716;6.444;2023-02-11T12:28:06;9.50;99.90
60473;DHT22;46318;52.716;6.444;2023-02-11T12:31:03;9.60;99.90
60473;DHT22;46318;52.716;6.444;2023-02-11T12:39:42;9.60;99.90
60473;DHT22;46318;52.716;6.444;2023-02-11T12:57:21;9.70;99.90
60473;DHT22;46318;52.716;6.444;2023-02-11T13:05:48;9.80;99.90
60473;DHT22;46318;52.716;6.444;2023-02-11T13:08:41;9.80;99.90
60473;DHT22;46318;52.716;6.444;2023-02-11T13:11:17;9.80;99.90
60473;DHT22;46318;52.716;6.444;2023-02-11T13:16:46;9.80;99.90
60473;DHT22;46318;52.716;6.444;2023-02-11T13:19:25;9.90;99.90
60473;DHT22;46318;52.716;6.444;2023-02-11T13:25:04;9.90;99.90
60473;DHT22;46318;52.716;6.444;2023-02-11T13:27:50;9.90;99.90
60473;DHT22;46318;52.716;6.444;2023-02-11T13:30:35;9.90;99.90
60473;DHT22;46318;52.716;6.444;2023-02-11T13:36:28;10.00;99.90
60473;DHT22;46318;52.716;6.444;2023-02-11T13:38:30;10.00;99.90
60473;DHT22;46318;52.716;6.444;2023-02-11T13:41:15;10.00;99.90
60473;DHT22;46318;52.716;6.444;2023-02-11T13:43:41;10.00;99.90
60473;DHT22;46318;52.716;6.444;2023-02-11T13:46:12;10.00;99.90
60473;DHT22;46318;52.716;6.444;2023-02-11T13:48:48;10.10;99.90
60473;DHT22;46318;52.716;6.444;2023-02-11T13:51:32;10.10;99.90
60473;DHT22;46318;52.716;6.444;2023-02-11T13:54:00;10.10;99.90
60473;DHT22;46318;52.716;6.444;2023-02-11T13:56:35;10.10;99.90
60473;DHT22;46318;52.716;6.444;2023-02-11T14:11:01;10.10;99.90
60473;DHT22;46318;52.716;6.444;2023-02-11T14:19:32;10.10;99.90
60473;DHT22;46318;52.716;6.444;2023-02-11T14:22:13;10.10;99.90
60473;DHT22;46318;52.716;6.444;2023-02-11T14:24:50;10.20;99.90
60473;DHT22;46318;52.716;6.444;2023-02-11T14:30:18;10.10;99.90
60473;DHT22;46318;52.716;6.444;2023-02-11T14:36:12;10.20;99.90
60473;DHT22;46318;52.716;6.444;2023-02-11T14:39:17;10.20;99.90
60473;DHT22;46318;52.716;6.444;2023-02-11T14:41:50;10.10;99.90
60473;DHT22;46318;52.716;6.444;2023-02-11T14:44:19;10.10;99.90
60473;DHT22;46318;52.716;6.444;2023-02-11T14:46:48;10.20;99.90
60473;DHT22;46318;52.716;6.444;2023-02-11T14:49:25;10.20;99.90
60473;DHT22;46318;52.716;6.444;2023-02-11T14:51:57;10.10;99.90
60473;DHT22;46318;52.716;6.444;2023-02-11T14:54:29;10.10;99.90
60473;DHT22;46318;52.716;6.444;2023-02-11T14:57:14;10.10;99.90
60473;DHT22;46318;52.716;6.444;2023-02-11T15:02:35;10.10;99.90
60473;DHT22;46318;52.716;6.444;2023-02-11T15:05:19;10.10;99.90
60473;DHT22;46318;52.716;6.444;2023-02-11T15:07:50;10.10;99.90
60473;DHT22;46318;52.716;6.444;2023-02-11T15:10:41;10.10;99.90
60473;DHT22;46318;52.716;6.444;2023-02-11T15:13:17;10.10;99.90
60473;DHT22;46318;52.716;6.444;2023-02-11T15:15:46;10.10;99.90
60473;DHT22;46318;52.716;6.444;2023-02-11T15:18:31;10.10;99.90
60473;DHT22;46318;52.716;6.444;2023-02-11T15:21:02;10.10;99.90
60473;DHT22;46318;52.716;6.444;2023-02-11T15:23:29;10.10;99.90
60473;DHT22;46318;52.716;6.444;2023-02-11T15:25:55;10.10;99.90
60473;DHT22;46318;52.716;6.444;2023-02-11T15:28:31;10.10;99.90
60473;DHT22;46318;52.716;6.444;2023-02-11T15:31:15;10.00;99.90
60473;DHT22;46318;52.716;6.444;2023-02-11T15:33:41;10.00;99.90
60473;DHT22;46318;52.716;6.444;2023-02-11T15:36:12;10.00;99.90
60473;DHT22;46318;52.716;6.444;2023-02-11T15:38:39;10.00;99.90
60473;DHT22;46318;52.716;6.444;2023-02-11T15:41:06;10.00;99.90
60473;DHT22;46318;52.716;6.444;2023-02-11T15:43:46;10.00;99.90
60473;DHT22;46318;52.716;6.444;2023-02-11T15:46:17;10.00;99.90
60473;DHT22;46318;52.716;6.444;2023-02-11T15:48:52;10.00;99.90
60473;DHT22;46318;52.716;6.444;2023-02-11T15:51:31;10.00;99.90
60473;DHT22;46318;52.716;6.444;2023-02-11T15:54:23;9.90;99.90
60473;DHT22;46318;52.716;6.444;2023-02-11T15:56:50;9.90;99.90
60473;DHT22;46318;52.716;6.444;2023-02-11T15:59:40;9.90;99.90
60473;DHT22;46318;52.716;6.444;2023-02-11T16:02:31;9.90;99.90
60473;DHT22;46318;52.716;6.444;2023-02-11T16:05:01;9.90;99.90
60473;DHT22;46318;52.716;6.444;2023-02-11T16:07:55;9.80;99.90
60473;DHT22;46318;52.716;6.444;2023-02-11T16:10:33;9.80;99.90
60473;DHT22;46318;52.716;6.444;2023-02-11T16:15:48;9.80;99.90
60473;DHT22;46318;52.716;6.444;2023-02-11T16:18:36;9.80;99.90
60473;DHT22;46318;52.716;6.444;2023-02-11T16:21:25;9.80;99.90
60473;DHT22;46318;52.716;6.444;2023-02-11T16:23:57;9.70;99.90
60473;DHT22;46318;52.716;6.444;2023-02-11T16:29:11;9.70;99.90
60473;DHT22;46318;52.716;6.444;2023-02-11T16:31:41;9.70;99.90
60473;DHT22;46318;52.716;6.444;2023-02-11T16:34:13;9.70;99.90
60473;DHT22;46318;52.716;6.444;2023-02-11T16:36:44;9.60;99.90
60473;DHT22;46318;52.716;6.444;2023-02-11T16:39:10;9.60;99.90
60473;DHT22;46318;52.716;6.444;2023-02-11T16:41:36;9.60;99.90
60473;DHT22;46318;52.716;6.444;2023-02-11T16:44:02;9.60;99.90
60473;DHT22;46318;52.716;6.444;2023-02-11T16:46:28;9.60;99.90
60473;DHT22;46318;52.716;6.444;2023-02-11T16:48:56;9.50;99.90
60473;DHT22;46318;52.716;6.444;2023-02-11T16:51:24;9.50;99.90
60473;DHT22;46318;52.716;6.444;2023-02-11T16:53:50;9.50;99.90
60473;DHT22;46318;52.716;6.444;2023-02-11T16:56:17;9.50;99.90
60473;DHT22;46318;52.716;6.444;2023-02-11T16:58:43;9.50;99.90
60473;DHT22;46318;52.716;6.444;2023-02-11T17:01:10;9.40;99.90
60473;DHT22;46318;52.716;6.444;2023-02-11T17:03:37;9.40;99.90
60473;DHT22;46318;52.716;6.444;2023-02-11T17:06:14;9.40;99.90
60473;DHT22;46318;52.716;6.444;2023-02-11T17:08:40;9.40;99.90
60473;DHT22;46318;52.716;6.444;2023-02-11T17:11:06;9.40;99.90
60473;DHT22;46318;52.716;6.444;2023-02-11T17:13:32;9.40;99.90
60473;DHT22;46318;52.716;6.444;2023-02-11T17:15:58;9.30;99.90
60473;DHT22;46318;52.716;6.444;2023-02-11T17:18:24;9.30;99.90
60473;DHT22;46318;52.716;6.444;2023-02-11T17:20:50;9.30;99.90
60473;DHT22;46318;52.716;6.444;2023-02-11T17:23:15;9.30;99.90
60473;DHT22;46318;52.716;6.444;2023-02-11T17:25:41;9.30;99.90
60473;DHT22;46318;52.716;6.444;2023-02-11T17:28:08;9.30;99.90
60473;DHT22;46318;52.716;6.444;2023-02-11T17:30:38;9.30;99.90
60473;DHT22;46318;52.716;6.444;2023-02-11T17:33:06;9.30;99.90
60473;DHT22;46318;52.716;6.444;2023-02-11T17:35:32;9.20;99.90
60473;DHT22;46318;52.716;6.444;2023-02-11T17:37:58;9.20;99.90
60473;DHT22;46318;52.716;6.444;2023-02-11T17:40:25;9.20;99.90
60473;DHT22;46318;52.716;6.444;2023-02-11T17:42:51;9.20;99.90
60473;DHT22;46318;52.716;6.444;2023-02-11T17:45:17;9.20;99.90
60473;DHT22;46318;52.716;6.444;2023-02-11T17:47:43;9.20;99.90
60473;DHT22;46318;52.716;6.444;2023-02-11T17:50:09;9.10;99.90
60473;DHT22;46318;52.716;6.444;2023-02-11T17:52:35;9.20;99.90
60473;DHT22;46318;52.716;6.444;2023-02-11T17:55:03;9.10;99.90
60473;DHT22;46318;52.716;6.444;2023-02-11T17:57:29;9.10;99.90
60473;DHT22;46318;52.716;6.444;2023-02-11T17:59:55;9.10;99.90
60473;DHT22;46318;52.716;6.444;2023-02-11T18:02:21;9.10;99.90
60473;DHT22;46318;52.716;6.444;2023-02-11T18:04:47;9.10;99.90
60473;DHT22;46318;52.716;6.444;2023-02-11T18:07:13;9.10;99.90
60473;DHT22;46318;52.716;6.444;2023-02-11T18:09:40;9.10;99.90
60473;DHT22;46318;52.716;6.444;2023-02-11T18:12:06;9.00;99.90
60473;DHT22;46318;52.716;6.444;2023-02-11T18:14:32;9.00;99.90
60473;DHT22;46318;52.716;6.444;2023-02-11T18:16:59;9.00;99.90
60473;DHT22;46318;52.716;6.444;2023-02-11T18:19:25;9.00;99.90
60473;DHT22;46318;52.716;6.444;2023-02-11T18:21:55;9.00;99.90
60473;DHT22;46318;52.716;6.444;2023-02-11T18:24:21;8.90;99.90
60473;DHT22;46318;52.716;6.444;2023-02-11T18:26:47;8.90;99.90
60473;DHT22;46318;52.716;6.444;2023-02-11T18:29:12;8.90;99.90
60473;DHT22;46318;52.716;6.444;2023-02-11T18:31:38;8.90;99.90
60473;DHT22;46318;52.716;6.444;2023-02-11T18:34:06;8.90;99.90